createdAt,value
2023-03-15T00:00:45.632Z,2.50
2023-03-15T00:01:45.629Z,3.10
2023-03-15T00:02:45.789Z,3.10
2023-03-15T00:03:45.683Z,2.30
2023-03-15T00:04:45.688Z,2.60
2023-03-15T00:05:45.755Z,3.90
2023-03-15T00:06:45.746Z,2.50
2023-03-15T00:07:45.667Z,2.60
2023-03-15T00:08:45.720Z,3.00
2023-03-15T00:09:45.534Z,2.70
2023-03-15T00:10:45.531Z,2.60
2023-03-15T00:11:45.512Z,2.80
2023-03-15T00:12:45.503Z,2.40
2023-03-15T00:13:45.489Z,2.60
2023-03-15T00:14:45.489Z,3.30
2023-03-15T00:15:45.583Z,2.90
2023-03-15T00:16:45.467Z,3.20
2023-03-15T00:17:45.450Z,3.10
2023-03-15T00:18:45.435Z,2.70
2023-03-15T00:19:45.427Z,3.10
2023-03-15T00:20:45.415Z,3.00
2023-03-15T00:21:45.435Z,2.90
2023-03-15T00:22:45.392Z,2.70
2023-03-15T00:23:45.381Z,2.50
2023-03-15T00:24:45.377Z,2.60
2023-03-15T00:25:45.355Z,2.80
2023-03-15T00:26:45.362Z,3.50
2023-03-15T00:27:45.333Z,2.30
2023-03-15T00:28:45.334Z,2.50
2023-03-15T00:29:45.316Z,2.90
2023-03-15T00:30:45.306Z,2.60
2023-03-15T00:31:45.291Z,2.70
2023-03-15T00:32:45.316Z,2.70
2023-03-15T00:33:45.275Z,3.30
2023-03-15T00:34:45.258Z,2.60
2023-03-15T00:35:45.320Z,3.10
2023-03-15T00:36:45.244Z,2.60
2023-03-15T00:37:45.248Z,2.80
2023-03-15T00:38:45.219Z,2.30
2023-03-15T00:39:45.202Z,2.10
2023-03-15T00:40:45.193Z,2.20
2023-03-15T00:41:45.182Z,2.70
2023-03-15T00:42:45.172Z,2.50
2023-03-15T00:43:45.161Z,2.60
2023-03-15T00:44:45.160Z,2.40
2023-03-15T00:45:45.143Z,3.10
2023-03-15T00:46:45.209Z,2.00
2023-03-15T00:47:45.125Z,2.30
2023-03-15T00:48:45.108Z,2.70
2023-03-15T00:49:45.096Z,2.20
2023-03-15T00:50:45.087Z,2.40
2023-03-15T00:51:45.073Z,2.40
2023-03-15T00:52:45.065Z,2.50
2023-03-15T00:53:45.092Z,2.30
2023-03-15T00:54:45.043Z,2.00
2023-03-15T00:55:45.030Z,2.40
2023-03-15T00:56:45.025Z,2.30
2023-03-15T00:57:45.009Z,2.10
2023-03-15T00:58:44.999Z,3.40
2023-03-15T00:59:45.056Z,2.50
2023-03-15T01:00:44.978Z,3.20
2023-03-15T01:01:45.124Z,2.00
2023-03-15T01:02:45.034Z,1.70
2023-03-15T01:03:44.946Z,2.30
2023-03-15T01:04:44.934Z,2.10
2023-03-15T01:05:44.923Z,2.40
2023-03-15T01:06:44.911Z,2.10
2023-03-15T01:07:44.908Z,2.10
2023-03-15T01:08:44.888Z,1.90
2023-03-15T01:09:46.872Z,1.70
2023-03-15T01:10:44.870Z,2.10
2023-03-15T01:11:44.857Z,2.20
2023-03-15T01:12:44.897Z,1.80
2023-03-15T01:13:44.843Z,2.30
2023-03-15T01:14:44.826Z,2.20
2023-03-15T01:15:44.847Z,2.20
2023-03-15T01:16:44.810Z,2.20
2023-03-15T01:17:44.791Z,2.40
2023-03-15T01:18:44.780Z,2.40
2023-03-15T01:19:44.768Z,2.00
2023-03-15T01:20:44.764Z,2.20
2023-03-15T01:21:44.747Z,2.10
2023-03-15T01:22:44.746Z,2.10
2023-03-15T01:23:44.726Z,2.20
2023-03-15T01:24:44.717Z,1.80
2023-03-15T01:25:44.727Z,1.60
2023-03-15T01:26:44.699Z,1.60
2023-03-15T01:27:44.682Z,2.10
2023-03-15T01:28:44.679Z,2.50
2023-03-15T01:29:44.660Z,1.80
2023-03-15T01:30:44.649Z,2.10
2023-03-15T01:31:44.761Z,2.50
2023-03-15T01:32:44.702Z,1.80
2023-03-15T01:33:44.625Z,2.10
2023-03-15T01:34:44.607Z,1.70
2023-03-15T01:35:44.628Z,2.30
2023-03-15T01:36:44.593Z,1.90
2023-03-15T01:37:44.576Z,2.00
2023-03-15T01:38:44.607Z,2.00
2023-03-15T01:39:44.555Z,2.20
2023-03-15T01:40:44.593Z,1.60
2023-03-15T01:41:44.577Z,2.10
2023-03-15T01:42:44.518Z,1.90
2023-03-15T01:43:44.509Z,2.40
2023-03-15T01:44:44.500Z,2.10
2023-03-15T01:45:44.498Z,1.90
2023-03-15T01:46:44.578Z,2.00
2023-03-15T01:47:44.466Z,2.20
2023-03-15T01:48:44.477Z,2.00
2023-03-15T01:49:44.440Z,1.80
2023-03-15T01:50:44.435Z,2.10
2023-03-15T01:51:44.420Z,1.80
2023-03-15T01:52:44.414Z,2.00
2023-03-15T01:53:44.401Z,2.10
2023-03-15T01:54:44.388Z,2.30
2023-03-15T01:55:44.376Z,3.20
2023-03-15T01:56:44.366Z,2.20
2023-03-15T01:57:44.374Z,2.30
2023-03-15T01:58:44.344Z,2.20
2023-03-15T01:59:44.339Z,1.90
2023-03-15T02:00:44.345Z,2.30
2023-03-15T02:01:44.312Z,1.90
2023-03-15T02:02:44.310Z,2.30
2023-03-15T02:03:44.292Z,1.90
2023-03-15T02:04:44.280Z,1.80
2023-03-15T02:05:44.267Z,1.80
2023-03-15T02:06:44.257Z,2.30
2023-03-15T02:07:44.245Z,1.90
2023-03-15T02:08:44.235Z,2.00
2023-03-15T02:09:44.240Z,1.90
2023-03-15T02:10:44.212Z,2.20
2023-03-15T02:11:44.202Z,1.90
2023-03-15T02:12:44.192Z,2.10
2023-03-15T02:13:44.211Z,1.90
2023-03-15T02:14:44.173Z,2.00
2023-03-15T02:15:44.158Z,2.00
2023-03-15T02:16:44.445Z,2.00
2023-03-15T02:17:44.166Z,2.10
2023-03-15T02:18:44.126Z,1.70
2023-03-15T02:19:44.119Z,1.80
2023-03-15T02:20:44.105Z,2.40
2023-03-15T02:21:44.097Z,2.50
2023-03-15T02:22:44.082Z,2.30
2023-03-15T02:23:44.082Z,1.80
2023-03-15T02:24:44.070Z,2.30
2023-03-15T02:25:44.064Z,1.90
2023-03-15T02:26:44.071Z,2.80
2023-03-15T02:27:44.026Z,2.40
2023-03-15T02:28:44.026Z,2.30
2023-03-15T02:29:44.028Z,2.10
2023-03-15T02:30:44.003Z,2.40
2023-03-15T02:31:44.128Z,2.20
2023-03-15T02:32:44.069Z,2.10
2023-03-15T02:33:43.968Z,1.90
2023-03-15T02:34:43.950Z,2.40
2023-03-15T02:35:43.973Z,2.40
2023-03-15T02:36:43.930Z,2.10
2023-03-15T02:37:43.916Z,2.00
2023-03-15T02:38:43.924Z,2.20
2023-03-15T02:39:43.902Z,2.30
2023-03-15T02:40:43.887Z,2.30
2023-03-15T02:41:43.871Z,2.30
2023-03-15T02:42:43.880Z,2.10
2023-03-15T02:43:43.853Z,2.20
2023-03-15T02:44:43.840Z,2.80
2023-03-15T02:45:43.963Z,2.50
2023-03-15T02:46:43.859Z,2.20
2023-03-15T02:47:43.810Z,2.30
2023-03-15T02:48:43.800Z,2.80
2023-03-15T02:49:43.810Z,2.50
2023-03-15T02:50:43.785Z,2.60
2023-03-15T02:51:43.772Z,3.00
2023-03-15T02:52:43.757Z,2.60
2023-03-15T02:53:43.743Z,2.50
2023-03-15T02:54:43.915Z,3.30
2023-03-15T02:55:43.724Z,2.40
2023-03-15T02:56:43.724Z,2.60
2023-03-15T02:57:43.704Z,2.70
2023-03-15T02:58:43.724Z,2.90
2023-03-15T02:59:43.719Z,2.90
2023-03-15T03:00:43.681Z,2.40
2023-03-15T03:01:43.687Z,2.20
2023-03-15T03:02:43.732Z,2.40
2023-03-15T03:03:43.640Z,2.40
2023-03-15T03:04:43.629Z,2.40
2023-03-15T03:05:43.618Z,2.60
2023-03-15T03:06:43.610Z,2.70
2023-03-15T03:07:43.601Z,2.60
2023-03-15T03:08:43.591Z,2.80
2023-03-15T03:09:43.577Z,2.60
2023-03-15T03:10:43.575Z,3.50
2023-03-15T03:11:43.558Z,2.70
2023-03-15T03:12:43.554Z,2.70
2023-03-15T03:13:43.554Z,2.60
2023-03-15T03:14:43.578Z,2.40
2023-03-15T03:15:44.515Z,2.70
2023-03-15T03:16:43.587Z,2.80
2023-03-15T03:17:43.518Z,3.10
2023-03-15T03:18:43.488Z,3.00
2023-03-15T03:19:43.469Z,2.70
2023-03-15T03:20:43.455Z,2.60
2023-03-15T03:21:43.465Z,2.70
2023-03-15T03:22:43.434Z,2.80
2023-03-15T03:23:43.416Z,2.90
2023-03-15T03:24:43.408Z,2.90
2023-03-15T03:25:43.397Z,2.90
2023-03-15T03:26:43.388Z,3.00
2023-03-15T03:27:43.374Z,2.60
2023-03-15T03:28:43.363Z,2.90
2023-03-15T03:29:43.355Z,2.80
2023-03-15T03:30:43.576Z,3.20
2023-03-15T03:31:43.329Z,3.30
2023-03-15T03:32:43.348Z,2.80
2023-03-15T03:33:43.449Z,3.10
2023-03-15T03:34:43.296Z,3.00
2023-03-15T03:35:43.329Z,3.30
2023-03-15T03:36:43.278Z,2.90
2023-03-15T03:37:43.273Z,3.10
2023-03-15T03:38:43.263Z,2.70
2023-03-15T03:39:43.245Z,2.90
2023-03-15T03:40:43.230Z,3.30
2023-03-15T03:41:43.218Z,3.10
2023-03-15T03:42:43.210Z,3.40
2023-03-15T03:43:43.211Z,3.30
2023-03-15T03:44:43.187Z,3.90
2023-03-15T03:45:43.205Z,3.40
2023-03-15T03:46:43.174Z,3.10
2023-03-15T03:47:43.155Z,3.10
2023-03-15T03:48:43.148Z,3.10
2023-03-15T03:49:43.157Z,3.20
2023-03-15T03:50:43.123Z,3.40
2023-03-15T03:51:43.111Z,3.40
2023-03-15T03:52:43.099Z,3.40
2023-03-15T03:53:43.089Z,3.20
2023-03-15T03:54:43.094Z,3.20
2023-03-15T03:55:43.069Z,3.50
2023-03-15T03:56:43.058Z,3.20
2023-03-15T03:57:43.052Z,3.70
2023-03-15T03:58:43.031Z,3.60
2023-03-15T03:59:43.030Z,3.80
2023-03-15T04:00:43.009Z,3.60
2023-03-15T04:01:43.006Z,4.10
2023-03-15T04:02:43.007Z,3.20
2023-03-15T04:03:42.975Z,3.40
2023-03-15T04:04:43.027Z,3.70
2023-03-15T04:05:42.991Z,3.60
2023-03-15T04:06:42.943Z,3.90
2023-03-15T04:07:42.929Z,4.30
2023-03-15T04:08:42.922Z,3.60
2023-03-15T04:09:42.905Z,4.20
2023-03-15T04:10:42.898Z,4.30
2023-03-15T04:11:42.888Z,4.10
2023-03-15T04:12:42.918Z,4.20
2023-03-15T04:13:42.864Z,4.30
2023-03-15T04:14:42.850Z,3.80
2023-03-15T04:15:42.926Z,4.00
2023-03-15T04:16:42.844Z,3.80
2023-03-15T04:17:42.821Z,4.90
2023-03-15T04:18:42.806Z,4.80
2023-03-15T04:19:42.813Z,3.90
2023-03-15T04:20:42.784Z,3.80
2023-03-15T04:21:42.868Z,4.50
2023-03-15T04:22:42.761Z,4.10
2023-03-15T04:23:42.755Z,4.10
2023-03-15T04:24:42.745Z,4.90
2023-03-15T04:25:42.732Z,4.30
2023-03-15T04:26:42.716Z,4.40
2023-03-15T04:27:42.712Z,4.80
2023-03-15T04:28:42.697Z,4.50
2023-03-15T04:29:42.691Z,5.00
2023-03-15T04:30:42.700Z,4.20
2023-03-15T04:31:42.725Z,4.80
2023-03-15T04:32:42.812Z,4.60
2023-03-15T04:33:42.650Z,4.50
2023-03-15T04:34:42.647Z,5.30
2023-03-15T04:35:42.828Z,4.40
2023-03-15T04:36:42.646Z,4.70
2023-03-15T04:37:42.625Z,5.30
2023-03-15T04:38:42.594Z,4.70
2023-03-15T04:39:42.588Z,4.80
2023-03-15T04:40:42.574Z,4.70
2023-03-15T04:41:42.567Z,5.10
2023-03-15T04:42:42.555Z,4.70
2023-03-15T04:43:42.553Z,4.70
2023-03-15T04:44:42.534Z,5.10
2023-03-15T04:45:42.523Z,5.20
2023-03-15T04:46:42.569Z,6.30
2023-03-15T04:47:42.505Z,5.20
2023-03-15T04:48:42.490Z,5.10
2023-03-15T04:49:42.483Z,4.90
2023-03-15T04:50:42.470Z,5.40
2023-03-15T04:51:42.461Z,5.60
2023-03-15T04:52:42.452Z,5.10
2023-03-15T04:53:42.464Z,5.40
2023-03-15T04:54:42.434Z,5.10
2023-03-15T04:55:42.419Z,5.3
2023-03-15T04:56:42.417Z,5.2
2023-03-15T04:57:42.399Z,5.2
2023-03-15T04:58:42.388Z,6.1
2023-03-15T04:59:42.381Z,4.6
2023-03-15T05:00:42.487Z,5.2
2023-03-15T05:01:42.420Z,4.9
2023-03-15T05:02:42.362Z,5.0
2023-03-15T05:03:42.346Z,5.1
2023-03-15T05:04:42.322Z,5.9
2023-03-15T05:05:42.314Z,4.7
2023-03-15T05:06:42.299Z,5.2
2023-03-15T05:07:42.322Z,5.4
2023-03-15T05:08:42.278Z,6.0
2023-03-15T05:09:42.292Z,5.6
2023-03-15T05:10:42.271Z,6.1
2023-03-15T05:11:42.244Z,5.8
2023-03-15T05:12:42.244Z,5.6
2023-03-15T05:13:42.225Z,6.4
2023-03-15T05:14:42.234Z,6.6
2023-03-15T05:15:42.208Z,7.7
2023-03-15T05:16:42.272Z,6.6
2023-03-15T05:17:42.187Z,7.5
2023-03-15T05:18:42.174Z,6.4
2023-03-15T05:19:42.167Z,6.4
2023-03-15T05:20:42.152Z,6.4
2023-03-15T05:21:42.142Z,6.2
2023-03-15T05:22:42.146Z,6.4
2023-03-15T05:23:42.120Z,6.7
2023-03-15T05:24:42.109Z,5.8
2023-03-15T05:25:42.171Z,6.2
2023-03-15T05:26:42.087Z,7.2
2023-03-15T05:27:42.077Z,6.9
2023-03-15T05:28:42.065Z,6.6
2023-03-15T05:29:42.063Z,6.3
2023-03-15T05:30:42.047Z,6.8
2023-03-15T05:31:42.067Z,6.3
2023-03-15T05:32:42.049Z,7.0
2023-03-15T05:33:42.015Z,6.6
2023-03-15T05:34:42.000Z,6.7
2023-03-15T05:35:42.023Z,6.6
2023-03-15T05:36:41.990Z,6.4
2023-03-15T05:37:41.972Z,6.7
2023-03-15T05:38:43.944Z,6.7
2023-03-15T05:39:41.950Z,6.1
2023-03-15T05:40:41.931Z,6.5
2023-03-15T05:41:41.946Z,6.4
2023-03-15T05:42:41.946Z,7.1
2023-03-15T05:43:41.901Z,6.3
2023-03-15T05:44:41.900Z,6.5
2023-03-15T05:45:41.918Z,6.5
2023-03-15T05:46:41.869Z,6.6
2023-03-15T05:47:41.879Z,6.0
2023-03-15T05:48:41.848Z,6.1
2023-03-15T05:49:41.835Z,6.1
2023-03-15T05:50:41.826Z,6.3
2023-03-15T05:51:41.868Z,7.4
2023-03-15T05:52:41.831Z,6.1
2023-03-15T05:53:41.797Z,7.2
2023-03-15T05:54:41.781Z,6.6
2023-03-15T05:55:41.784Z,6.3
2023-03-15T05:56:41.756Z,6.3
2023-03-15T05:57:41.775Z,6.2
2023-03-15T05:58:41.751Z,6.5
2023-03-15T05:59:41.724Z,6.6
2023-03-15T06:00:41.718Z,7.0
2023-03-15T06:01:41.708Z,6.2
2023-03-15T06:02:41.697Z,6.7
2023-03-15T06:03:41.834Z,6.7
2023-03-15T06:04:41.709Z,6.4
2023-03-15T06:05:41.662Z,5.7
2023-03-15T06:06:41.651Z,6.3
2023-03-15T06:07:41.641Z,6.4
2023-03-15T06:08:41.631Z,6.7
2023-03-15T06:09:41.638Z,6.0
2023-03-15T06:10:41.608Z,6.7
2023-03-15T06:11:41.600Z,6.1
2023-03-15T06:12:41.584Z,11.7
2023-03-15T06:13:41.598Z,14.4
2023-03-15T06:14:41.565Z,18.0
2023-03-15T06:15:41.559Z,8.7
2023-03-15T06:16:41.635Z,8.1
2023-03-15T06:17:41.535Z,6.5
2023-03-15T06:18:41.531Z,6.5
2023-03-15T06:19:41.511Z,6.00
2023-03-15T06:20:41.505Z,6.00
2023-03-15T06:21:41.495Z,7.20
2023-03-15T06:22:41.476Z,6.30
2023-03-15T06:23:41.469Z,6.40
2023-03-15T06:24:41.458Z,6.30
2023-03-15T06:25:41.447Z,6.10
2023-03-15T06:26:41.436Z,6.20
2023-03-15T06:27:41.423Z,6.60
2023-03-15T06:28:41.409Z,6.30
2023-03-15T06:29:41.429Z,6.60
2023-03-15T06:30:41.443Z,7.20
2023-03-15T06:31:41.375Z,6.50
2023-03-15T06:32:41.423Z,5.80
2023-03-15T06:33:41.355Z,6.10
2023-03-15T06:34:41.343Z,5.70
2023-03-15T06:35:41.412Z,6.20
2023-03-15T06:36:41.321Z,5.60
2023-03-15T06:37:41.310Z,5.30
2023-03-15T06:38:41.297Z,5.70
2023-03-15T06:39:41.289Z,5.00
2023-03-15T06:40:41.278Z,5.30
2023-03-15T06:41:41.270Z,4.50
2023-03-15T06:42:41.258Z,5.70
2023-03-15T06:43:41.246Z,5.40
2023-03-15T06:44:41.240Z,4.90
2023-03-15T06:45:41.310Z,3.80
2023-03-15T06:46:41.211Z,4.60
2023-03-15T06:47:41.201Z,4.30
2023-03-15T06:48:41.240Z,4.40
2023-03-15T06:49:41.180Z,11.40
2023-03-15T06:50:47.227Z,31.10
2023-03-15T06:51:41.159Z,8.50
2023-03-15T06:52:41.146Z,5.20
2023-03-15T06:53:41.137Z,4.10
2023-03-15T06:54:41.150Z,3.50
2023-03-15T06:55:41.112Z,4.40
2023-03-15T06:56:41.126Z,3.10
2023-03-15T06:57:42.991Z,3.40
2023-03-15T06:58:41.080Z,3.80
2023-03-15T06:59:41.071Z,3.30
2023-03-15T07:00:41.133Z,3.10
2023-03-15T07:01:41.189Z,2.80
2023-03-15T07:02:41.127Z,2.80
2023-03-15T07:03:41.029Z,2.80
2023-03-15T07:04:41.018Z,3.20
2023-03-15T07:05:41.008Z,2.30
2023-03-15T07:06:40.995Z,2.80
2023-03-15T07:07:40.988Z,2.50
2023-03-15T07:08:40.978Z,3.30
2023-03-15T07:09:40.977Z,2.70
2023-03-15T07:10:40.956Z,2.70
2023-03-15T07:11:40.941Z,3.70
2023-03-15T07:12:40.930Z,2.80
2023-03-15T07:13:40.923Z,3.10
2023-03-15T07:14:40.964Z,2.90
2023-03-15T07:15:40.976Z,2.60
2023-03-15T07:16:40.948Z,2.20
2023-03-15T07:17:41.005Z,2.20
2023-03-15T07:18:40.983Z,2.40
2023-03-15T07:19:50.153Z,2.80
2023-03-15T07:20:41.892Z,2.20
2023-03-15T07:21:41.114Z,2.40
2023-03-15T07:22:40.850Z,2.20
2023-03-15T07:23:40.819Z,2.40
2023-03-15T07:24:40.821Z,2.70
2023-03-15T07:25:54.018Z,2.30
2023-03-15T07:26:41.821Z,1.90
2023-03-15T07:27:40.779Z,1.90
2023-03-15T07:28:40.768Z,2.10
2023-03-15T07:29:41.357Z,2.00
2023-03-15T07:30:40.742Z,2.00
2023-03-15T07:31:40.744Z,2.50
2023-03-15T07:32:40.856Z,2.20
2023-03-15T07:33:40.747Z,1.90
2023-03-15T07:34:40.698Z,1.90
2023-03-15T07:35:40.761Z,1.80
2023-03-15T07:36:40.674Z,2.00
2023-03-15T07:37:44.339Z,2.00
2023-03-15T07:38:43.041Z,2.00
2023-03-15T07:39:40.644Z,2.00
2023-03-15T07:40:40.633Z,2.10
2023-03-15T07:41:40.642Z,2.00
2023-03-15T07:42:40.606Z,1.60
2023-03-15T07:43:40.604Z,2.00
2023-03-15T07:44:40.590Z,2.60
2023-03-15T07:45:40.582Z,4.10
2023-03-15T07:46:40.603Z,2.40
2023-03-15T07:47:40.564Z,2.00
2023-03-15T07:48:40.543Z,1.60
2023-03-15T07:49:40.577Z,1.70
2023-03-15T07:50:40.517Z,1.30
2023-03-15T07:51:40.515Z,1.50
2023-03-15T07:52:40.495Z,1.40
2023-03-15T07:53:40.489Z,2.10
2023-03-15T07:54:40.478Z,1.70
2023-03-15T07:55:40.467Z,1.30
2023-03-15T07:56:40.461Z,1.60
2023-03-15T07:57:40.444Z,1.30
2023-03-15T07:58:40.429Z,1.80
2023-03-15T07:59:40.449Z,1.40
2023-03-15T08:00:40.406Z,1.50
2023-03-15T08:01:40.477Z,1.40
2023-03-15T08:02:40.569Z,1.50
2023-03-15T08:03:40.375Z,1.30
2023-03-15T08:04:40.363Z,1.40
2023-03-15T08:05:40.382Z,1.80
2023-03-15T08:06:40.364Z,1.40
2023-03-15T08:07:40.329Z,1.70
2023-03-15T08:08:40.321Z,1.90
2023-03-15T08:09:40.309Z,1.70
2023-03-15T08:10:40.304Z,1.40
2023-03-15T08:11:40.904Z,1.60
2023-03-15T08:12:40.278Z,1.80
2023-03-15T08:13:40.316Z,1.50
2023-03-15T08:14:40.256Z,1.50
2023-03-15T08:15:40.259Z,2.30
2023-03-15T08:16:40.311Z,1.80
2023-03-15T08:17:40.221Z,1.80
2023-03-15T08:18:40.209Z,1.40
2023-03-15T08:19:40.233Z,1.80
2023-03-15T08:20:40.213Z,1.60
2023-03-15T08:21:40.230Z,1.80
2023-03-15T08:22:40.170Z,1.60
2023-03-15T08:23:40.154Z,1.70
2023-03-15T08:24:40.143Z,1.50
2023-03-15T08:25:40.134Z,1.70
2023-03-15T08:26:40.122Z,1.60
2023-03-15T08:27:40.125Z,1.80
2023-03-15T08:28:40.100Z,2.70
2023-03-15T08:29:40.085Z,1.60
2023-03-15T08:30:40.087Z,2.20
2023-03-15T08:31:40.241Z,2.10
2023-03-15T08:32:40.129Z,1.60
2023-03-15T08:33:40.045Z,1.50
2023-03-15T08:34:40.043Z,1.60
2023-03-15T08:35:40.082Z,1.50
2023-03-15T08:36:40.099Z,1.70
2023-03-15T08:37:40.035Z,1.40
2023-03-15T08:38:40.014Z,1.70
2023-03-15T08:39:39.992Z,1.50
2023-03-15T08:40:40.072Z,1.50
2023-03-15T08:41:39.957Z,1.70
2023-03-15T08:42:39.946Z,1.70
2023-03-15T08:43:39.936Z,2.00
2023-03-15T08:44:39.927Z,1.70
2023-03-15T08:45:59.701Z,1.10
2023-03-15T08:46:40.992Z,2.20
2023-03-15T08:47:39.893Z,1.60
2023-03-15T08:48:39.882Z,1.70
2023-03-15T08:49:39.870Z,1.80
2023-03-15T08:50:39.857Z,1.90
2023-03-15T08:51:39.848Z,2.90
2023-03-15T08:52:39.834Z,2.70
2023-03-15T08:53:39.847Z,1.40
2023-03-15T08:54:39.811Z,2.00
2023-03-15T08:55:39.800Z,1.90
2023-03-15T08:56:39.789Z,1.60
2023-03-15T08:57:39.777Z,2.00
2023-03-15T08:58:39.765Z,1.90
2023-03-15T08:59:39.753Z,1.90
2023-03-15T09:00:39.749Z,2.00
2023-03-15T09:01:39.743Z,1.80
2023-03-15T09:02:39.754Z,1.50
2023-03-15T09:03:39.710Z,2.60
2023-03-15T09:04:39.801Z,1.90
2023-03-15T09:05:39.689Z,1.80
2023-03-15T09:06:39.678Z,1.90
2023-03-15T09:07:39.684Z,2.10
2023-03-15T09:08:39.663Z,1.50
2023-03-15T09:09:39.666Z,1.40
2023-03-15T09:10:39.639Z,2.20
2023-03-15T09:11:39.626Z,1.70
2023-03-15T09:12:39.615Z,1.30
2023-03-15T09:13:39.600Z,1.30
2023-03-15T09:14:39.594Z,1.70
2023-03-15T09:15:39.578Z,1.70
2023-03-15T09:16:39.598Z,2.00
2023-03-15T09:17:39.568Z,2.20
2023-03-15T09:18:39.548Z,2.00
2023-03-15T09:19:39.552Z,1.60
2023-03-15T09:20:39.532Z,1.70
2023-03-15T09:21:39.514Z,1.40
2023-03-15T09:22:40.002Z,1.60
2023-03-15T09:23:39.492Z,1.40
2023-03-15T09:24:39.483Z,1.60
2023-03-15T09:25:39.503Z,1.60
2023-03-15T09:26:39.462Z,1.30
2023-03-15T09:27:39.455Z,1.40
2023-03-15T09:28:39.446Z,1.40
2023-03-15T09:29:39.433Z,1.90
2023-03-15T09:30:39.486Z,1.70
2023-03-15T09:31:39.415Z,1.60
2023-03-15T09:32:39.558Z,1.30
2023-03-15T09:33:39.391Z,2.10
2023-03-15T09:34:42.001Z,1.90
2023-03-15T09:35:39.408Z,2.10
2023-03-15T09:36:39.423Z,1.60
2023-03-15T09:37:39.343Z,1.60
2023-03-15T09:38:39.337Z,1.50
2023-03-15T09:39:39.328Z,1.30
2023-03-15T09:40:39.314Z,1.20
2023-03-15T09:41:39.330Z,1.60
2023-03-15T09:42:39.303Z,1.20
2023-03-15T09:43:39.278Z,1.60
2023-03-15T09:44:39.270Z,1.70
2023-03-15T09:45:39.261Z,1.50
2023-03-15T09:46:42.350Z,1.60
2023-03-15T09:47:39.238Z,1.90
2023-03-15T09:48:39.226Z,1.50
2023-03-15T09:49:39.216Z,1.70
2023-03-15T09:50:39.229Z,1.50
2023-03-15T09:51:39.226Z,1.70
2023-03-15T09:52:39.185Z,1.20
2023-03-15T09:53:39.175Z,1.50
2023-03-15T09:54:39.166Z,1.50
2023-03-15T09:55:39.147Z,1.60
2023-03-15T09:56:39.139Z,1.40
2023-03-15T09:57:39.147Z,1.70
2023-03-15T09:58:39.121Z,1.30
2023-03-15T09:59:39.105Z,1.30
2023-03-15T10:00:39.098Z,1.60
2023-03-15T10:01:39.112Z,1.50
2023-03-15T10:02:39.074Z,1.30
2023-03-15T10:03:39.085Z,1.60
2023-03-15T10:04:39.052Z,1.50
2023-03-15T10:05:39.040Z,2.00
2023-03-15T10:06:39.028Z,1.50
2023-03-15T10:07:39.052Z,0.90
2023-03-15T10:08:39.010Z,1.20
2023-03-15T10:09:39.046Z,1.60
2023-03-15T10:10:38.990Z,1.00
2023-03-15T10:11:38.994Z,1.00
2023-03-15T10:12:38.964Z,1.10
2023-03-15T10:13:38.980Z,0.70
2023-03-15T10:14:38.942Z,1.00
2023-03-15T10:15:38.964Z,0.60
2023-03-15T10:16:38.918Z,0.70
2023-03-15T10:17:38.915Z,0.40
2023-03-15T10:18:38.905Z,0.90
2023-03-15T10:19:38.913Z,1.40
2023-03-15T10:20:38.874Z,1.40
2023-03-15T10:21:38.863Z,0.70
2023-03-15T10:22:38.858Z,0.70
2023-03-15T10:23:38.844Z,0.60
2023-03-15T10:24:38.836Z,0.90
2023-03-15T10:25:38.852Z,0.70
2023-03-15T10:26:38.817Z,0.90
2023-03-15T10:27:38.804Z,0.70
2023-03-15T10:28:38.802Z,1.00
2023-03-15T10:29:38.800Z,0.90
2023-03-15T10:30:38.789Z,0.80
2023-03-15T10:31:44.688Z,0.80
2023-03-15T10:32:39.802Z,0.70
2023-03-15T10:33:38.778Z,0.90
2023-03-15T10:34:38.732Z,0.80
2023-03-15T10:35:38.816Z,1.00
2023-03-15T10:36:38.694Z,0.80
2023-03-15T10:37:38.680Z,0.80
2023-03-15T10:38:38.673Z,1.00
2023-03-15T10:39:38.657Z,0.90
2023-03-15T10:40:38.659Z,0.70
2023-03-15T10:41:38.658Z,0.70
2023-03-15T10:42:40.140Z,0.80
2023-03-15T10:43:38.613Z,0.60
2023-03-15T10:44:38.601Z,0.90
2023-03-15T10:45:38.619Z,0.90
2023-03-15T10:46:38.660Z,0.80
2023-03-15T10:47:41.039Z,0.80
2023-03-15T10:48:38.620Z,1.00
2023-03-15T10:49:38.549Z,0.50
2023-03-15T10:50:38.538Z,0.70
2023-03-15T10:51:38.524Z,0.60
2023-03-15T10:52:38.524Z,0.70
2023-03-15T10:53:38.499Z,0.80
2023-03-15T10:54:38.491Z,1.20
2023-03-15T10:55:38.477Z,0.90
2023-03-15T10:56:38.468Z,0.90
2023-03-15T10:57:38.459Z,1.00
2023-03-15T10:58:38.445Z,1.00
2023-03-15T10:59:38.434Z,0.80
2023-03-15T11:00:38.422Z,0.80
2023-03-15T11:01:38.572Z,0.90
2023-03-15T11:02:38.452Z,0.90
2023-03-15T11:03:38.407Z,0.90
2023-03-15T11:04:38.385Z,0.80
2023-03-15T11:05:38.370Z,0.80
2023-03-15T11:06:38.359Z,0.90
2023-03-15T11:07:38.351Z,1.00
2023-03-15T11:08:38.339Z,1.00
2023-03-15T11:09:38.347Z,1.00
2023-03-15T11:10:38.315Z,0.90
2023-03-15T11:11:38.302Z,1.00
2023-03-15T11:12:38.295Z,0.70
2023-03-15T11:13:38.285Z,0.90
2023-03-15T11:14:38.273Z,0.70
2023-03-15T11:15:38.258Z,0.90
2023-03-15T11:16:38.505Z,1.10
2023-03-15T11:17:38.272Z,0.90
2023-03-15T11:18:38.271Z,1.20
2023-03-15T11:19:38.217Z,1.30
2023-03-15T11:20:38.214Z,0.90
2023-03-15T11:21:38.190Z,1.10
2023-03-15T11:22:38.189Z,0.90
2023-03-15T11:23:38.169Z,1.00
2023-03-15T11:24:38.209Z,1.20
2023-03-15T11:25:38.162Z,1.00
2023-03-15T11:26:38.137Z,0.90
2023-03-15T11:27:38.134Z,1.00
2023-03-15T11:28:38.115Z,0.70
2023-03-15T11:29:38.112Z,0.90
2023-03-15T11:30:38.102Z,1.50
2023-03-15T11:31:38.192Z,1.00
2023-03-15T11:32:38.111Z,0.70
2023-03-15T11:33:38.095Z,0.80
2023-03-15T11:34:38.048Z,1.10
2023-03-15T11:35:38.137Z,0.90
2023-03-15T11:36:38.034Z,1.00
2023-03-15T11:37:38.049Z,0.80
2023-03-15T11:38:38.004Z,0.90
2023-03-15T11:39:37.992Z,0.60
2023-03-15T11:40:37.985Z,0.80
2023-03-15T11:41:37.973Z,1.20
2023-03-15T11:42:37.968Z,1.10
2023-03-15T11:43:37.950Z,0.90
2023-03-15T11:44:37.945Z,0.60
2023-03-15T11:45:38.026Z,0.80
2023-03-15T11:46:37.919Z,0.70
2023-03-15T11:47:37.910Z,0.80
2023-03-15T11:48:37.896Z,0.70
2023-03-15T11:49:37.942Z,0.70
2023-03-15T11:50:40.119Z,1.10
2023-03-15T11:51:37.877Z,0.60
2023-03-15T11:52:37.854Z,1.00
2023-03-15T11:53:37.841Z,3.20
2023-03-15T11:54:37.836Z,0.80
2023-03-15T11:55:37.820Z,0.90
2023-03-15T11:56:37.810Z,0.90
2023-03-15T11:57:37.943Z,0.90
2023-03-15T11:58:37.786Z,0.90
2023-03-15T11:59:37.863Z,1.00
2023-03-15T12:00:37.764Z,0.80
2023-03-15T12:01:37.752Z,1.00
2023-03-15T12:02:37.816Z,0.60
2023-03-15T12:03:37.777Z,0.60
2023-03-15T12:04:37.727Z,1.00
2023-03-15T12:05:37.738Z,0.80
2023-03-15T12:06:37.720Z,0.90
2023-03-15T12:07:37.688Z,0.80
2023-03-15T12:08:37.677Z,1.10
2023-03-15T12:09:37.666Z,1.10
2023-03-15T12:10:37.657Z,1.20
2023-03-15T12:11:37.642Z,1.00
2023-03-15T12:12:37.640Z,0.90
2023-03-15T12:13:37.617Z,1.10
2023-03-15T12:14:37.612Z,0.80
2023-03-15T12:15:37.632Z,1.10
2023-03-15T12:16:37.631Z,1.20
2023-03-15T12:17:37.881Z,0.90
2023-03-15T12:18:37.565Z,0.90
2023-03-15T12:19:37.553Z,0.90
2023-03-15T12:20:37.545Z,0.90
2023-03-15T12:21:37.572Z,0.90
2023-03-15T12:22:37.545Z,1.10
2023-03-15T12:23:37.507Z,1.00
2023-03-15T12:24:37.522Z,1.20
2023-03-15T12:25:48.954Z,1.10
2023-03-15T12:26:37.478Z,0.90
2023-03-15T12:27:37.469Z,1.00
2023-03-15T12:28:37.465Z,0.90
2023-03-15T12:29:37.447Z,1.20
2023-03-15T12:30:37.466Z,1.10
2023-03-15T12:31:37.421Z,1.10
2023-03-15T12:32:37.439Z,0.80
2023-03-15T12:33:37.414Z,0.60
2023-03-15T12:34:37.403Z,1.10
2023-03-15T12:35:37.386Z,1.20
2023-03-15T12:36:37.377Z,0.80
2023-03-15T12:37:37.390Z,0.60
2023-03-15T12:38:37.341Z,0.90
2023-03-15T12:39:37.330Z,0.80
2023-03-15T12:40:37.330Z,0.80
2023-03-15T12:41:37.307Z,0.70
2023-03-15T12:42:37.298Z,0.90
2023-03-15T12:43:37.286Z,1.20
2023-03-15T12:44:37.275Z,1.30
2023-03-15T12:45:37.646Z,1.10
2023-03-15T12:46:37.317Z,1.00
2023-03-15T12:47:37.247Z,1.20
2023-03-15T12:48:37.227Z,0.90
2023-03-15T12:49:37.239Z,0.80
2023-03-15T12:50:37.218Z,1.00
2023-03-15T12:51:37.212Z,0.80
2023-03-15T12:52:37.334Z,1.10
2023-03-15T12:53:37.299Z,0.90
2023-03-15T12:54:37.167Z,1.00
2023-03-15T12:55:37.158Z,1.20
2023-03-15T12:56:37.141Z,1.20
2023-03-15T12:57:37.168Z,1.10
2023-03-15T12:58:37.185Z,1.10
2023-03-15T12:59:37.110Z,1.00
2023-03-15T13:00:37.097Z,0.90
2023-03-15T13:01:37.132Z,1.00
2023-03-15T13:02:43.682Z,1.00
2023-03-15T13:03:38.265Z,1.60
2023-03-15T13:04:37.055Z,1.00
2023-03-15T13:05:37.045Z,1.10
2023-03-15T13:06:37.035Z,0.70
2023-03-15T13:07:50.747Z,0.90
2023-03-15T13:08:37.016Z,0.90
2023-03-15T13:09:37.028Z,0.90
2023-03-15T13:10:37.052Z,1.10
2023-03-15T13:11:36.997Z,0.80
2023-03-15T13:12:36.970Z,0.90
2023-03-15T13:13:36.968Z,0.90
2023-03-15T13:14:36.951Z,1.00
2023-03-15T13:15:38.976Z,1.00
2023-03-15T13:16:36.928Z,0.90
2023-03-15T13:17:36.931Z,1.20
2023-03-15T13:18:36.911Z,6.20
2023-03-15T13:19:36.903Z,1.80
2023-03-15T13:20:36.884Z,1.10
2023-03-15T13:21:36.878Z,1.00